createdAt,value
2018-06-16T00:01:15.243Z,99.90
2018-06-16T00:03:43.721Z,99.90
2018-06-16T00:06:12.283Z,99.90
2018-06-16T00:08:40.746Z,99.90
2018-06-16T00:11:09.914Z,99.90
2018-06-16T00:13:38.410Z,99.90
2018-06-16T00:16:06.837Z,99.90
2018-06-16T00:18:35.316Z,99.90
2018-06-16T00:21:03.785Z,99.90
2018-06-16T00:23:32.250Z,99.90
2018-06-16T00:26:00.702Z,99.90
2018-06-16T00:28:29.119Z,99.90
2018-06-16T00:30:57.654Z,99.90
2018-06-16T00:33:26.110Z,99.90
2018-06-16T00:35:54.877Z,99.90
2018-06-16T00:38:23.523Z,99.90
2018-06-16T00:40:52.213Z,99.90
2018-06-16T00:43:21.090Z,99.90
2018-06-16T00:45:49.533Z,99.90
2018-06-16T00:48:18.026Z,99.90
2018-06-16T00:50:46.475Z,99.90
2018-06-16T00:53:15.074Z,99.90
2018-06-16T00:55:43.532Z,99.90
2018-06-16T00:58:12.078Z,99.90
2018-06-16T01:00:40.542Z,99.90
2018-06-16T01:03:09.105Z,99.90
2018-06-16T01:05:37.658Z,99.90
2018-06-16T01:08:06.792Z,99.90
2018-06-16T01:10:35.637Z,99.90
2018-06-16T01:13:04.691Z,99.90
2018-06-16T01:15:33.230Z,99.90
2018-06-16T01:18:01.740Z,99.90
2018-06-16T01:20:30.223Z,99.90
2018-06-16T01:22:58.755Z,99.90
2018-06-16T01:25:27.272Z,99.90
2018-06-16T01:27:55.771Z,99.90
2018-06-16T01:30:24.475Z,99.90
2018-06-16T01:32:53.009Z,99.90
2018-06-16T01:35:21.617Z,99.90
2018-06-16T01:37:50.339Z,99.90
2018-06-16T01:40:18.818Z,99.90
2018-06-16T01:42:47.269Z,99.90
2018-06-16T01:45:15.803Z,99.90
2018-06-16T01:47:44.358Z,99.90
2018-06-16T01:50:12.825Z,99.90
2018-06-16T01:52:41.361Z,99.90
2018-06-16T01:55:09.822Z,99.90
2018-06-16T01:57:38.355Z,99.90
2018-06-16T02:02:57.136Z,99.90
2018-06-16T02:05:25.691Z,99.90
2018-06-16T02:07:54.219Z,99.90
2018-06-16T02:10:22.832Z,99.90
2018-06-16T02:12:51.297Z,99.90
2018-06-16T02:15:19.731Z,99.90
2018-06-16T02:17:48.207Z,99.90
2018-06-16T02:20:16.690Z,99.90
2018-06-16T02:22:45.084Z,99.90
2018-06-16T02:25:13.506Z,99.90
2018-06-16T02:27:41.956Z,99.90
2018-06-16T02:30:10.497Z,99.90
2018-06-16T02:32:39.044Z,99.90
2018-06-16T02:35:07.571Z,99.90
2018-06-16T02:37:36.008Z,99.90
2018-06-16T02:40:04.495Z,99.90
2018-06-16T02:42:32.966Z,99.90
2018-06-16T02:45:01.577Z,99.90
2018-06-16T02:47:30.021Z,99.90
2018-06-16T02:49:58.464Z,99.90
2018-06-16T02:52:26.940Z,99.90
2018-06-16T02:54:55.396Z,99.90
2018-06-16T02:57:24.538Z,99.90
2018-06-16T02:59:53.070Z,99.90
2018-06-16T03:02:21.571Z,99.90
2018-06-16T03:04:50.093Z,99.90
2018-06-16T03:07:18.748Z,99.90
2018-06-16T03:09:47.205Z,99.90
2018-06-16T03:12:15.689Z,99.90
2018-06-16T03:14:44.127Z,99.90
2018-06-16T03:17:12.642Z,99.90
2018-06-16T03:19:41.127Z,99.90
2018-06-16T03:22:09.697Z,99.90
2018-06-16T03:24:38.204Z,99.90
2018-06-16T03:27:06.765Z,99.90
2018-06-16T03:29:35.401Z,99.90
2018-06-16T03:32:03.911Z,99.90
2018-06-16T03:34:32.499Z,99.90
2018-06-16T03:37:00.932Z,99.90
2018-06-16T03:39:29.408Z,99.90
2018-06-16T03:41:57.897Z,99.90
2018-06-16T03:44:26.533Z,99.90
2018-06-16T03:46:54.998Z,99.90
2018-06-16T03:49:23.461Z,99.90
2018-06-16T03:51:51.959Z,99.90
2018-06-16T03:54:20.484Z,99.90
2018-06-16T03:56:49.027Z,99.90
2018-06-16T03:59:17.543Z,99.90
2018-06-16T04:01:46.038Z,99.90
2018-06-16T04:04:15.064Z,99.90
2018-06-16T04:06:43.538Z,99.90
2018-06-16T04:09:12.279Z,99.90
2018-06-16T04:11:40.752Z,99.90
2018-06-16T04:14:09.242Z,99.90
2018-06-16T04:16:37.827Z,99.90
2018-06-16T04:19:06.311Z,99.90
2018-06-16T04:21:35.039Z,99.90
2018-06-16T04:24:03.629Z,99.90
2018-06-16T04:26:32.067Z,99.90
2018-06-16T04:29:00.592Z,99.90
2018-06-16T04:31:29.187Z,99.90
2018-06-16T04:33:57.750Z,99.90
2018-06-16T04:36:26.187Z,99.90
2018-06-16T04:38:54.728Z,99.90
2018-06-16T04:41:23.169Z,99.90
2018-06-16T04:43:51.712Z,99.90
2018-06-16T04:46:20.101Z,99.90
2018-06-16T04:48:48.623Z,99.90
2018-06-16T04:51:17.121Z,99.90
2018-06-16T04:53:45.601Z,99.90
2018-06-16T04:56:14.203Z,99.90
2018-06-16T04:58:42.813Z,99.90
2018-06-16T05:01:11.324Z,99.90
2018-06-16T05:03:39.804Z,99.90
2018-06-16T05:06:08.284Z,99.90
2018-06-16T05:08:36.723Z,99.90
2018-06-16T05:11:05.179Z,99.90
2018-06-16T05:13:33.677Z,99.90
2018-06-16T05:16:02.238Z,99.90
2018-06-16T05:18:30.706Z,99.90
2018-06-16T05:20:59.230Z,99.90
2018-06-16T05:23:27.900Z,99.90
2018-06-16T05:25:56.655Z,99.90
2018-06-16T05:28:25.870Z,99.90
2018-06-16T05:30:54.614Z,99.90
2018-06-16T05:33:23.072Z,99.90
2018-06-16T05:35:58.547Z,99.30
2018-06-16T05:38:27.443Z,99.00
2018-06-16T05:40:55.966Z,97.50
2018-06-16T05:43:24.459Z,97.00
2018-06-16T05:45:52.980Z,96.40
2018-06-16T05:48:21.448Z,96.40
2018-06-16T05:50:49.973Z,96.90
2018-06-16T05:53:19.709Z,96.90
2018-06-16T05:55:48.142Z,97.00
2018-06-16T05:58:16.600Z,96.50
2018-06-16T06:00:45.043Z,95.60
2018-06-16T06:03:13.580Z,95.10
2018-06-16T06:05:42.164Z,93.70
2018-06-16T06:10:38.823Z,91.00
2018-06-16T06:13:07.292Z,87.50
2018-06-16T06:15:35.981Z,85.60
2018-06-16T06:18:04.502Z,82.80
2018-06-16T06:20:32.932Z,82.90
2018-06-16T06:23:01.614Z,82.00
2018-06-16T06:25:30.508Z,77.50
2018-06-16T06:27:58.987Z,74.90
2018-06-16T06:30:27.536Z,75.80
2018-06-16T06:32:56.033Z,77.00
2018-06-16T06:35:24.501Z,76.20
2018-06-16T06:37:53.263Z,73.80
2018-06-16T06:40:21.772Z,73.20
2018-06-16T06:42:50.221Z,70.80
2018-06-16T06:45:18.769Z,67.20
2018-06-16T06:47:47.366Z,65.30
2018-06-16T06:50:15.927Z,63.30
2018-06-16T06:52:44.395Z,59.40
2018-06-16T06:55:12.908Z,57.30
2018-06-16T06:57:41.372Z,56.60
2018-06-16T07:00:09.823Z,57.10
2018-06-16T07:02:38.292Z,56.40
2018-06-16T07:05:07.275Z,57.60
2018-06-16T07:07:35.710Z,54.30
2018-06-16T07:10:04.284Z,53.40
2018-06-16T07:12:33.249Z,51.60
2018-06-16T07:15:02.088Z,48.20
2018-06-16T07:17:30.592Z,45.70
2018-06-16T07:19:59.389Z,44.00
2018-06-16T07:22:27.856Z,43.80
2018-06-16T07:24:56.380Z,43.10
2018-06-16T07:27:24.791Z,40.30
2018-06-16T07:29:53.309Z,40.00
2018-06-16T07:32:21.844Z,40.70
2018-06-16T07:34:50.519Z,42.90
2018-06-16T07:37:19.062Z,43.90
2018-06-16T07:39:47.870Z,44.90
2018-06-16T07:42:16.326Z,45.80
2018-06-16T07:44:44.816Z,46.90
2018-06-16T07:47:13.341Z,48.20
2018-06-16T07:49:44.516Z,48.60
2018-06-16T07:52:13.085Z,49.80
2018-06-16T07:54:41.667Z,48.20
2018-06-16T07:57:10.117Z,47.50
2018-06-16T07:59:38.770Z,45.40
2018-06-16T08:02:07.554Z,43.30
2018-06-16T08:04:36.093Z,42.50
2018-06-16T08:07:04.682Z,41.40
2018-06-16T08:09:33.741Z,39.90
2018-06-16T08:12:02.161Z,40.80
2018-06-16T08:14:30.608Z,39.80
2018-06-16T08:16:59.037Z,38.70
2018-06-16T08:19:27.539Z,40.60
2018-06-16T08:21:55.988Z,40.60
2018-06-16T08:24:24.435Z,39.20
2018-06-16T08:26:52.860Z,39.90
2018-06-16T08:29:21.274Z,39.30
2018-06-16T08:31:49.709Z,38.60
2018-06-16T08:34:18.257Z,38.40
2018-06-16T08:36:53.208Z,37.90
2018-06-16T08:39:21.664Z,36.30
2018-06-16T08:41:50.181Z,37.90
2018-06-16T08:44:18.623Z,37.00
2018-06-16T08:46:47.102Z,38.70
2018-06-16T08:49:15.508Z,39.60
2018-06-16T08:51:43.995Z,41.60
2018-06-16T08:54:12.440Z,41.20
2018-06-16T08:56:40.984Z,42.10
2018-06-16T08:59:09.515Z,41.10
2018-06-16T09:01:37.964Z,38.70
2018-06-16T09:04:06.482Z,38.00
2018-06-16T09:06:35.045Z,36.90
2018-06-16T09:09:04.098Z,38.00
2018-06-16T09:11:32.567Z,37.30
2018-06-16T09:14:01.102Z,38.00
2018-06-16T09:16:29.597Z,38.30
2018-06-16T09:18:58.257Z,38.70
2018-06-16T09:21:26.740Z,37.70
2018-06-16T09:23:55.163Z,39.20
2018-06-16T09:26:23.637Z,39.80
2018-06-16T09:28:52.130Z,39.30
2018-06-16T09:31:20.579Z,37.40
2018-06-16T09:33:52.036Z,37.00
2018-06-16T09:36:20.536Z,37.60
2018-06-16T09:38:48.984Z,37.90
2018-06-16T09:41:17.492Z,37.20
2018-06-16T09:43:45.980Z,36.60
2018-06-16T09:46:14.521Z,38.20
2018-06-16T09:48:43.221Z,38.30
2018-06-16T09:51:11.714Z,39.70
2018-06-16T09:54:14.173Z,41.50
2018-06-16T09:56:42.678Z,41.70
2018-06-16T09:59:11.197Z,42.60
2018-06-16T10:01:39.771Z,41.90
2018-06-16T10:04:08.404Z,40.90
2018-06-16T10:06:37.310Z,39.90
2018-06-16T10:09:07.742Z,40.00
2018-06-16T10:11:36.268Z,39.50
2018-06-16T10:14:05.059Z,38.90
2018-06-16T10:16:33.586Z,38.10
2018-06-16T10:19:02.158Z,38.50
2018-06-16T10:21:30.695Z,38.00
2018-06-16T10:23:59.379Z,37.60
2018-06-16T10:26:27.908Z,38.80
2018-06-16T10:28:56.431Z,39.50
2018-06-16T10:31:24.901Z,39.60
2018-06-16T10:33:53.513Z,39.80
2018-06-16T10:36:22.000Z,39.90
2018-06-16T10:38:50.543Z,40.80
2018-06-16T10:41:19.053Z,39.30
2018-06-16T10:43:47.651Z,39.20
2018-06-16T10:46:16.157Z,39.20
2018-06-16T10:48:44.767Z,38.00
2018-06-16T10:51:13.321Z,40.80
2018-06-16T10:53:41.922Z,40.60
2018-06-16T10:58:39.096Z,38.70
2018-06-16T11:01:07.853Z,37.70
2018-06-16T11:03:36.406Z,39.20
2018-06-16T11:06:04.862Z,40.10
2018-06-16T11:08:33.412Z,42.00
2018-06-16T11:11:01.947Z,42.70
2018-06-16T11:13:30.554Z,44.90
2018-06-16T11:15:59.061Z,46.20
2018-06-16T11:18:27.683Z,47.80
2018-06-16T11:20:56.504Z,50.50
2018-06-16T11:23:25.087Z,51.70
2018-06-16T11:25:53.637Z,54.00
2018-06-16T11:28:22.115Z,55.40
2018-06-16T11:30:50.589Z,56.60
2018-06-16T11:46:18.532Z,57.80
2018-06-16T11:48:47.113Z,58.20
2018-06-16T11:51:15.596Z,51.70
2018-06-16T11:53:44.057Z,53.10
2018-06-16T11:56:12.717Z,54.70
2018-06-16T11:58:41.452Z,56.50
2018-06-16T12:01:09.962Z,56.50
2018-06-16T12:03:38.621Z,57.70
2018-06-16T12:06:07.222Z,59.10
2018-06-16T12:08:35.765Z,61.20
2018-06-16T12:11:04.345Z,63.20
2018-06-16T12:13:32.922Z,63.80
2018-06-16T12:16:01.546Z,63.30
2018-06-16T12:18:30.017Z,63.00
2018-06-16T12:20:58.519Z,62.60
2018-06-16T12:23:26.958Z,61.80
2018-06-16T12:25:55.508Z,60.30
2018-06-16T12:28:24.293Z,60.30
2018-06-16T12:33:21.022Z,59.70
2018-06-16T12:35:49.565Z,60.20
2018-06-16T12:38:18.120Z,59.20
2018-06-16T12:40:46.551Z,57.50
2018-06-16T12:43:15.219Z,56.50
2018-06-16T12:45:44.147Z,58.00
2018-06-16T12:48:12.798Z,57.10
2018-06-16T12:50:41.405Z,57.50
2018-06-16T12:53:10.165Z,57.20
2018-06-16T12:55:38.808Z,57.20
2018-06-16T12:58:07.364Z,56.80
2018-06-16T13:00:36.261Z,56.70
2018-06-16T13:03:04.782Z,54.80
2018-06-16T13:18:34.551Z,54.50
2018-06-16T13:21:03.040Z,56.50
2018-06-16T13:23:31.502Z,54.80
2018-06-16T13:26:00.046Z,54.90
2018-06-16T13:28:28.576Z,56.90
2018-06-16T13:30:57.073Z,58.90
2018-06-16T13:33:25.980Z,59.10
2018-06-16T13:35:54.803Z,59.50
2018-06-16T13:38:23.322Z,59.70
2018-06-16T13:40:51.839Z,59.50
2018-06-16T13:43:20.547Z,60.00
2018-06-16T13:45:49.046Z,60.10
2018-06-16T13:48:17.559Z,59.80
2018-06-16T13:50:46.951Z,59.40
2018-06-16T13:55:44.645Z,59.10
2018-06-16T13:58:13.275Z,59.80
2018-06-16T14:00:41.841Z,61.90
2018-06-16T14:03:10.312Z,62.50
2018-06-16T14:05:38.855Z,63.30
2018-06-16T14:08:07.511Z,62.20
2018-06-16T14:10:36.501Z,62.20
2018-06-16T14:13:05.279Z,63.40
2018-06-16T14:15:33.950Z,64.50
2018-06-16T14:18:02.974Z,64.80
2018-06-16T14:20:31.430Z,65.80
2018-06-16T14:22:59.878Z,68.80
2018-06-16T14:25:28.409Z,69.00
2018-06-16T14:27:56.876Z,70.20
2018-06-16T14:30:25.329Z,71.00
2018-06-16T14:32:53.853Z,71.50
2018-06-16T14:35:22.348Z,70.60
2018-06-16T14:37:50.805Z,71.00
2018-06-16T14:40:19.719Z,71.30
2018-06-16T14:42:48.661Z,72.10
2018-06-16T14:45:17.263Z,73.40
2018-06-16T14:47:45.916Z,75.20
2018-06-16T14:50:14.400Z,79.30
2018-06-16T14:52:43.080Z,83.20
2018-06-16T14:55:11.517Z,93.20
2018-06-16T14:57:39.985Z,99.90
2018-06-16T15:00:08.582Z,99.90
2018-06-16T15:02:37.022Z,99.90
2018-06-16T15:05:12.021Z,99.90
2018-06-16T15:07:40.555Z,99.90
2018-06-16T15:10:09.038Z,99.90
2018-06-16T15:12:37.585Z,99.90
2018-06-16T15:15:06.019Z,99.90
2018-06-16T15:17:34.702Z,99.90
2018-06-16T15:20:03.301Z,99.90
2018-06-16T15:22:31.934Z,99.90
2018-06-16T15:25:00.561Z,99.90
2018-06-16T15:27:29.190Z,99.90
2018-06-16T15:32:25.768Z,99.90
2018-06-16T15:34:54.442Z,99.90
2018-06-16T15:37:23.373Z,99.90
2018-06-16T15:39:51.869Z,99.90
2018-06-16T15:42:20.401Z,99.90
2018-06-16T15:44:49.634Z,99.90
2018-06-16T15:47:18.120Z,96.10
2018-06-16T15:49:46.652Z,96.10
2018-06-16T15:54:43.432Z,96.40
2018-06-16T15:57:12.039Z,95.50
2018-06-16T15:59:40.581Z,95.80
2018-06-16T16:02:09.028Z,95.80
2018-06-16T16:04:37.553Z,96.70
2018-06-16T16:07:06.179Z,96.80
2018-06-16T16:09:34.713Z,97.70
2018-06-16T16:12:03.183Z,97.80
2018-06-16T16:14:31.659Z,98.10
2018-06-16T16:17:03.033Z,98.00
2018-06-16T16:22:00.090Z,98.20
2018-06-16T16:24:28.797Z,98.40
2018-06-16T16:26:57.275Z,99.80
2018-06-16T16:29:25.701Z,99.90
2018-06-16T16:31:54.235Z,99.40
2018-06-16T16:34:22.793Z,99.50
2018-06-16T16:36:51.659Z,99.90
2018-06-16T16:39:20.233Z,99.30
2018-06-16T16:41:48.933Z,99.90
2018-06-16T16:44:17.660Z,99.90
2018-06-16T16:46:46.173Z,99.90
2018-06-16T16:49:14.805Z,99.90
2018-06-16T16:51:43.408Z,99.90
2018-06-16T16:54:11.913Z,99.90
2018-06-16T16:56:40.480Z,99.50
2018-06-16T16:59:09.024Z,98.80
2018-06-16T17:01:37.827Z,97.70
2018-06-16T17:04:06.597Z,97.60
2018-06-16T17:06:35.272Z,97.50
2018-06-16T17:09:05.853Z,97.50
2018-06-16T17:11:34.507Z,98.00
2018-06-16T17:14:03.116Z,97.10
2018-06-16T17:16:31.679Z,96.60
2018-06-16T17:19:00.636Z,95.60
2018-06-16T17:23:57.728Z,94.60
2018-06-16T17:26:26.355Z,93.90
2018-06-16T17:28:54.987Z,92.20
2018-06-16T17:31:23.601Z,92.70
2018-06-16T17:33:52.709Z,92.10
2018-06-16T17:36:21.205Z,92.00
2018-06-16T17:38:50.151Z,92.10
2018-06-16T17:41:18.832Z,92.10
2018-06-16T17:43:47.404Z,91.60
2018-06-16T17:46:15.955Z,91.80
2018-06-16T17:48:44.588Z,91.10
2018-06-16T17:51:13.342Z,90.80
2018-06-16T17:53:42.472Z,91.10
2018-06-16T17:56:10.936Z,91.40
2018-06-16T18:01:08.108Z,90.90
2018-06-16T18:03:36.604Z,90.90
2018-06-16T18:06:05.129Z,90.80
2018-06-16T18:08:33.781Z,91.30
2018-06-16T18:11:02.289Z,90.60
2018-06-16T18:13:30.872Z,90.50
2018-06-16T18:15:59.829Z,90.40
2018-06-16T18:18:28.549Z,90.30
2018-06-16T18:20:57.005Z,91.00
2018-06-16T18:23:25.533Z,90.90
2018-06-16T18:25:54.474Z,91.00
2018-06-16T18:28:23.180Z,90.80
2018-06-16T18:30:51.744Z,90.70
2018-06-16T18:33:20.280Z,90.90
2018-06-16T18:35:49.011Z,91.20
2018-06-16T18:38:18.462Z,91.10
2018-06-16T18:40:46.981Z,91.30
2018-06-16T18:43:15.777Z,91.60
2018-06-16T18:45:44.317Z,91.60
2018-06-16T18:48:12.916Z,92.00
2018-06-16T18:50:41.551Z,91.60
2018-06-16T18:53:10.086Z,91.80
2018-06-16T18:55:38.640Z,92.30
2018-06-16T18:58:07.388Z,92.60
2018-06-16T19:00:35.920Z,92.60
2018-06-16T19:03:04.490Z,92.90
2018-06-16T19:05:33.112Z,93.30
2018-06-16T19:08:01.696Z,93.40
2018-06-16T19:10:30.146Z,93.70
2018-06-16T19:12:58.837Z,94.00
2018-06-16T19:15:27.350Z,94.30
2018-06-16T19:17:55.849Z,94.70
2018-06-16T19:20:24.510Z,94.90
2018-06-16T19:22:53.954Z,95.50
2018-06-16T19:25:24.496Z,95.90
2018-06-16T19:27:57.773Z,96.10
2018-06-16T19:30:26.270Z,96.20
2018-06-16T19:32:54.739Z,96.60
2018-06-16T19:35:23.493Z,97.00
2018-06-16T19:37:51.989Z,97.40
2018-06-16T19:40:20.557Z,97.60
2018-06-16T19:42:49.154Z,97.90
2018-06-16T19:45:19.242Z,98.20
2018-06-16T19:47:47.702Z,98.30
2018-06-16T19:50:16.228Z,98.60
2018-06-16T19:52:44.827Z,99.00
2018-06-16T19:55:13.363Z,99.20
2018-06-16T19:57:42.259Z,99.30
2018-06-16T20:00:11.265Z,99.30
2018-06-16T20:02:39.984Z,99.40
2018-06-16T20:05:08.541Z,99.40
2018-06-16T20:07:37.803Z,99.40
2018-06-16T20:10:07.006Z,99.70
2018-06-16T20:12:35.828Z,99.90
2018-06-16T20:15:04.684Z,99.90
2018-06-16T20:17:33.794Z,99.90
2018-06-16T20:20:02.437Z,99.90
2018-06-16T20:22:31.538Z,99.90
2018-06-16T20:25:00.400Z,99.90
2018-06-16T20:27:28.957Z,99.90
2018-06-16T20:29:57.522Z,99.90
2018-06-16T20:32:26.085Z,99.90
2018-06-16T20:34:55.078Z,99.90
2018-06-16T20:37:23.912Z,99.90
2018-06-16T20:39:52.515Z,99.90
2018-06-16T20:42:21.248Z,99.90
2018-06-16T20:44:50.207Z,99.90
2018-06-16T20:47:18.955Z,99.90
2018-06-16T20:49:48.072Z,99.90
2018-06-16T20:52:16.590Z,99.90
2018-06-16T20:54:45.146Z,99.90
2018-06-16T20:57:13.610Z,99.90
2018-06-16T20:59:42.298Z,99.90
2018-06-16T21:02:10.833Z,99.90
2018-06-16T21:04:39.293Z,99.90
2018-06-16T21:07:08.245Z,99.90
2018-06-16T21:09:37.060Z,99.90
2018-06-16T21:12:06.840Z,99.90
2018-06-16T21:14:35.507Z,99.90
2018-06-16T21:17:04.185Z,99.90
2018-06-16T21:19:32.802Z,99.90
2018-06-16T21:22:02.185Z,99.90
2018-06-16T21:24:30.977Z,99.90
2018-06-16T21:26:59.463Z,99.90
2018-06-16T21:29:28.036Z,99.90
2018-06-16T21:31:56.553Z,99.90
2018-06-16T21:34:25.094Z,99.90
2018-06-16T21:36:53.612Z,99.90
2018-06-16T21:39:22.421Z,99.90
2018-06-16T21:41:51.157Z,99.90
2018-06-16T21:44:20.252Z,99.90
2018-06-16T21:46:48.936Z,99.90
2018-06-16T21:49:17.499Z,99.90
2018-06-16T21:51:46.122Z,99.90
2018-06-16T21:54:15.146Z,99.90
2018-06-16T21:56:43.915Z,99.90
2018-06-16T21:59:12.828Z,99.90
2018-06-16T22:01:41.376Z,99.90
2018-06-16T22:04:10.261Z,99.90
2018-06-16T22:06:38.796Z,99.90
2018-06-16T22:09:09.752Z,99.90
2018-06-16T22:11:38.321Z,99.90
2018-06-16T22:14:07.156Z,99.90
2018-06-16T22:16:35.792Z,99.90
2018-06-16T22:19:04.945Z,99.90
2018-06-16T22:21:33.653Z,99.90
2018-06-16T22:24:02.249Z,99.90
2018-06-16T22:26:30.958Z,99.90
2018-06-16T22:28:59.488Z,99.90
2018-06-16T22:31:27.992Z,99.90
2018-06-16T22:33:56.474Z,99.90
2018-06-16T22:38:53.581Z,99.90
2018-06-16T22:41:22.095Z,99.90
2018-06-16T22:43:50.575Z,99.90
2018-06-16T22:46:19.048Z,99.90
2018-06-16T22:48:47.889Z,99.90
2018-06-16T22:51:16.378Z,99.90
2018-06-16T22:53:44.953Z,99.90
2018-06-16T22:56:13.495Z,99.90
2018-06-16T22:58:42.043Z,99.90
2018-06-16T23:01:10.537Z,99.90
2018-06-16T23:03:39.061Z,99.90
2018-06-16T23:06:07.744Z,99.90
2018-06-16T23:08:36.321Z,99.90
2018-06-16T23:11:04.809Z,99.90
2018-06-16T23:13:33.262Z,99.90
2018-06-16T23:16:01.840Z,99.90
2018-06-16T23:18:30.399Z,99.90
2018-06-16T23:20:59.061Z,99.90
2018-06-16T23:23:27.493Z,99.90
2018-06-16T23:25:56.139Z,99.90
2018-06-16T23:28:24.684Z,99.90
2018-06-16T23:30:53.218Z,99.90
2018-06-16T23:33:22.149Z,99.90
2018-06-16T23:35:50.677Z,99.90
2018-06-16T23:38:19.113Z,99.90
2018-06-16T23:40:47.609Z,99.90
2018-06-16T23:43:16.101Z,99.90
2018-06-16T23:45:44.618Z,99.90
2018-06-16T23:48:13.212Z,99.90
2018-06-16T23:50:41.741Z,99.90
2018-06-16T23:53:11.003Z,99.90
2018-06-16T23:55:39.490Z,99.90
2018-06-16T23:58:07.980Z,99.90
